Time;durP1;ratioP1;P1;durP2;ratioP2;P2;SDS_P1;SDS_P2;PMS_P1;PMS_P2;Temp;Humidity;BMP_temperature;BMP_pressure;BME280_temperature;BME280_humidity;BME280_pressure;Samples;Min_cycle;Max_cycle;Signal;HPM_P1;HPM_P2
2023/09/19 00:00:02;;;;;;;2.35;1.00;;;;;;;14.35;100.00;95602.31;1037964;28;20041;-74
2023/09/19 00:00:33;;;;;;;3.33;0.90;;;;;;;14.33;100.00;95591.25;1042032;28;20047;-74
2023/09/19 00:01:06;;;;;;;2.35;1.10;;;;;;;14.42;100.00;95606.41;1042176;28;20108;-75
2023/09/19 00:01:36;;;;;;;1.35;0.80;;;;;;;14.39;100.00;95605.94;1046303;28;20026;-76
2023/09/19 00:02:08;;;;;;;1.08;0.90;;;;;;;14.45;100.00;95608.47;1042079;28;20021;-75
2023/09/19 00:02:39;;;;;;;2.13;0.93;;;;;;;14.43;100.00;95605.34;1038986;28;20021;-74
2023/09/19 00:03:10;;;;;;;3.33;1.00;;;;;;;14.42;100.00;95601.94;1030364;28;20029;-74
2023/09/19 00:03:42;;;;;;;4.10;1.50;;;;;;;14.46;100.00;95604.78;1038476;28;20025;-73
2023/09/19 00:04:12;;;;;;;1.67;1.05;;;;;;;14.47;100.00;95601.06;1038736;28;20024;-75
2023/09/19 00:04:43;;;;;;;1.58;0.73;;;;;;;14.45;100.00;95592.63;1039096;28;20029;-75
2023/09/19 00:05:13;;;;;;;2.40;1.33;;;;;;;14.45;100.00;95598.69;1034411;28;20018;-76
2023/09/19 00:05:44;;;;;;;2.33;0.85;;;;;;;14.45;100.00;95598.69;1030710;28;20402;-74
2023/09/19 00:06:15;;;;;;;1.02;0.90;;;;;;;14.49;100.00;95593.66;1026414;28;20024;-74
2023/09/19 00:06:47;;;;;;;2.92;0.95;;;;;;;14.57;100.00;95600.91;1036232;28;20025;-76
2023/09/19 00:07:17;;;;;;;2.35;1.08;;;;;;;14.53;100.00;95599.94;1038853;28;20119;-74
2023/09/19 00:07:48;;;;;;;4.80;1.10;;;;;;;14.57;100.00;95601.69;1033834;28;20022;-74
2023/09/19 00:08:23;;;;;;;1.20;0.75;;;;;;;14.58;100.00;95605.09;1030649;28;20030;-74
2023/09/19 00:08:54;;;;;;;1.20;1.00;;;;;;;14.61;100.00;95604.53;1035895;28;20065;-74
2023/09/19 00:09:27;;;;;;;1.33;0.80;;;;;;;14.55;100.00;95595.94;1035197;28;20026;-74
2023/09/19 00:09:58;;;;;;;1.08;0.90;;;;;;;14.64;100.00;95605.81;1028492;28;20023;-74
2023/09/19 00:10:31;;;;;;;1.40;1.05;;;;;;;14.66;100.00;95599.19;1042021;28;20486;-73
2023/09/19 00:11:03;;;;;;;5.93;1.08;;;;;;;14.69;100.00;95592.50;1047385;28;20399;-73
2023/09/19 00:11:34;;;;;;;1.65;1.10;;;;;;;14.71;100.00;95601.72;1047608;28;20028;-75
2023/09/19 00:12:06;;;;;;;2.47;1.35;;;;;;;14.68;100.00;95591.72;1048663;28;20038;-75
2023/09/19 00:12:36;;;;;;;1.55;0.70;;;;;;;14.75;100.00;95599.25;1041557;28;20036;-73
2023/09/19 00:13:07;;;;;;;1.00;0.90;;;;;;;14.74;100.00;95601.13;1041507;28;20029;-74
2023/09/19 00:13:38;;;;;;;3.83;0.88;;;;;;;14.69;100.00;95592.50;1042602;28;20055;-75
2023/09/19 00:14:09;;;;;;;1.35;0.80;;;;;;;14.77;100.00;95602.41;1038716;28;20029;-73
2023/09/19 00:14:40;;;;;;;2.78;0.85;;;;;;;14.78;100.00;95602.09;1038591;28;20037;-74
2023/09/19 00:15:11;;;;;;;2.55;1.10;;;;;;;14.79;100.00;95603.69;1030320;28;20033;-73
2023/09/19 00:15:48;;;;;;;1.60;0.90;;;;;;;14.82;100.00;95597.03;1033255;28;20037;-75
2023/09/19 00:16:19;;;;;;;0.88;0.88;;;;;;;14.77;100.00;95589.97;1036438;28;20091;-74
2023/09/19 00:16:49;;;;;;;0.98;0.88;;;;;;;14.78;100.00;95596.81;1030190;28;20030;-75
2023/09/19 00:17:20;;;;;;;3.17;1.02;;;;;;;14.83;100.00;95599.38;1026589;28;20090;-75
2023/09/19 00:17:52;;;;;;;4.43;1.10;;;;;;;14.84;100.00;95595.66;1030212;28;20045;-74
2023/09/19 00:18:24;;;;;;;3.53;1.10;;;;;;;14.84;100.00;95593.00;1041374;28;20086;-74
2023/09/19 00:18:55;;;;;;;4.22;1.20;;;;;;;14.83;100.00;95593.31;1042610;28;20064;-73
2023/09/19 00:19:25;;;;;;;2.15;0.73;;;;;;;14.87;100.00;95594.28;1039187;28;20033;-74
2023/09/19 00:19:56;;;;;;;5.78;0.95;;;;;;;14.85;100.00;95586.69;1043576;28;20096;-74
2023/09/19 00:20:26;;;;;;;3.20;1.10;;;;;;;14.90;100.00;95592.94;1038033;28;20026;-75
2023/09/19 00:20:57;;;;;;;4.57;1.65;;;;;;;14.87;100.00;95585.59;1034712;28;20053;-75
2023/09/19 00:21:28;;;;;;;1.45;0.90;;;;;;;14.93;100.00;95584.44;1034334;28;20056;-75
2023/09/19 00:21:58;;;;;;;1.33;0.95;;;;;;;14.91;100.00;95583.94;1034366;28;20018;-74
2023/09/19 00:22:29;;;;;;;2.45;1.45;;;;;;;14.93;100.00;95589.72;1038551;28;20025;-74
2023/09/19 00:23:08;;;;;;;1.15;0.93;;;;;;;14.92;100.00;95594.19;1042887;28;20028;-75
2023/09/19 00:23:40;;;;;;;1.58;0.85;;;;;;;14.90;100.00;95592.94;1042540;28;20075;-75
2023/09/19 00:24:12;;;;;;;2.92;1.05;;;;;;;14.91;100.00;95587.34;1032924;28;20050;-75
2023/09/19 00:24:43;;;;;;;2.72;1.35;;;;;;;14.95;100.00;95595.47;1026284;28;20054;-74
2023/09/19 00:25:15;;;;;;;1.70;1.08;;;;;;;14.91;100.00;95583.94;1024470;28;20078;-75
2023/09/19 00:25:45;;;;;;;1.73;0.80;;;;;;;14.94;100.00;95594.69;1038423;28;20025;-75
2023/09/19 00:26:17;;;;;;;2.03;1.30;;;;;;;14.93;100.00;95595.00;1038390;28;20029;-75
2023/09/19 00:26:48;;;;;;;2.13;1.17;;;;;;;14.92;100.00;95602.09;1038294;28;20033;-74
2023/09/19 00:27:18;;;;;;;3.03;0.93;;;;;;;14.90;100.00;95598.22;1038541;28;20037;-74
2023/09/19 00:27:51;;;;;;;2.83;1.05;;;;;;;14.91;100.00;95594.50;1042617;28;20031;-73
2023/09/19 00:28:22;;;;;;;1.83;0.93;;;;;;;14.88;100.00;95595.84;1039261;28;20397;-74
2023/09/19 00:28:52;;;;;;;1.25;0.77;;;;;;;14.85;100.00;95596.44;1037970;28;20025;-75
2023/09/19 00:29:23;;;;;;;1.25;0.80;;;;;;;14.80;100.00;95594.69;1026967;28;20599;-74
2023/09/19 00:29:54;;;;;;;3.60;0.88;;;;;;;14.87;100.00;95601.44;1041529;28;20103;-76
2023/09/19 00:30:24;;;;;;;5.50;0.90;;;;;;;14.81;100.00;95590.19;1040581;28;20415;-76
2023/09/19 00:30:55;;;;;;;2.95;0.82;;;;;;;14.79;100.00;95592.34;1037689;28;20068;-73
2023/09/19 00:31:25;;;;;;;1.42;1.10;;;;;;;14.86;100.00;95603.31;1034512;28;20085;-75
2023/09/19 00:31:57;;;;;;;1.00;0.80;;;;;;;14.79;100.00;95595.00;1034073;28;20030;-74
2023/09/19 00:32:31;;;;;;;2.67;1.10;;;;;;;14.76;100.00;95593.72;1030433;28;20038;-76
2023/09/19 00:33:05;;;;;;;1.35;0.75;;;;;;;14.83;100.00;95604.66;1035196;28;20128;-75
2023/09/19 00:33:36;;;;;;;1.70;0.70;;;;;;;14.78;100.00;95596.81;1038445;28;20041;-74
2023/09/19 00:34:09;;;;;;;1.77;0.85;;;;;;;14.82;100.00;95603.09;1042581;28;20033;-75
2023/09/19 00:34:39;;;;;;;1.70;0.98;;;;;;;14.82;100.00;95602.31;1038227;28;20037;-74
2023/09/19 00:35:10;;;;;;;2.20;0.90;;;;;;;14.82;100.00;95608.41;1038588;28;20176;-74
2023/09/19 00:35:56;;;;;;;1.52;0.93;;;;;;;14.78;100.00;95601.31;1033732;28;20025;-73
2023/09/19 00:36:26;;;;;;;3.10;1.08;;;;;;;14.78;100.00;95602.09;1040619;28;20030;-74
2023/09/19 00:36:57;;;;;;;3.60;1.02;;;;;;;14.83;100.00;95609.94;1042142;28;20051;-73
2023/09/19 00:37:27;;;;;;;3.20;1.48;;;;;;;14.74;100.00;95595.84;1034520;28;20022;-75
2023/09/19 00:37:58;;;;;;;2.58;0.85;;;;;;;14.84;100.00;95605.44;1037759;28;20455;-75
2023/09/19 00:38:28;;;;;;;1.17;0.73;;;;;;;14.83;100.00;95612.59;1042756;28;20025;-74
2023/09/19 00:38:59;;;;;;;2.40;1.20;;;;;;;14.87;100.00;95607.50;1046474;28;20090;-74
2023/09/19 00:39:31;;;;;;;2.35;1.08;;;;;;;14.87;100.00;95614.66;1046453;28;20031;-75
2023/09/19 00:40:06;;;;;;;1.20;0.90;;;;;;;14.86;100.00;95616.50;1042476;28;20029;-76
2023/09/19 00:40:36;;;;;;;3.20;1.17;;;;;;;14.83;100.00;95607.31;1038275;28;20584;-74
2023/09/19 00:41:07;;;;;;;6.68;1.67;;;;;;;14.84;100.00;95611.50;1031214;28;20061;-73
2023/09/19 00:41:38;;;;;;;3.20;0.90;;;;;;;14.77;100.00;95600.53;1039290;28;20033;-75
2023/09/19 00:42:08;;;;;;;1.70;0.70;;;;;;;14.81;100.00;95606.81;1038303;28;20036;-74
2023/09/19 00:42:40;;;;;;;1.35;0.90;;;;;;;14.78;100.00;95607.38;1040850;28;20037;-74
2023/09/19 00:43:11;;;;;;;3.15;1.02;;;;;;;14.81;100.00;95612.09;1030483;28;20553;-74
2023/09/19 00:43:41;;;;;;;1.67;0.93;;;;;;;14.83;100.00;95625.81;1038193;28;20112;-75
2023/09/19 00:44:11;;;;;;;3.95;0.95;;;;;;;14.82;100.00;95613.69;1038667;28;20033;-75
2023/09/19 00:44:42;;;;;;;2.35;0.88;;;;;;;14.84;100.00;95616.00;1036889;28;20045;-75
2023/09/19 00:45:14;;;;;;;1.30;1.10;;;;;;;14.83;100.00;95609.94;1032531;28;20533;-74
2023/09/19 00:45:47;;;;;;;3.28;1.33;;;;;;;14.89;100.00;95623.06;1042199;28;20492;-74
2023/09/19 00:46:18;;;;;;;1.50;0.90;;;;;;;14.84;100.00;95619.44;1042563;28;20092;-75
2023/09/19 00:46:50;;;;;;;1.20;0.82;;;;;;;14.89;100.00;95623.06;1030398;28;20026;-74
2023/09/19 00:47:21;;;;;;;2.50;1.25;;;;;;;14.89;100.00;95618.56;1034129;28;20029;-74
2023/09/19 00:47:51;;;;;;;2.90;1.10;;;;;;;14.87;100.00;95620.72;1034414;28;20030;-74
2023/09/19 00:48:22;;;;;;;1.67;0.90;;;;;;;14.89;100.00;95623.06;1030372;28;20030;-75
2023/09/19 00:48:52;;;;;;;2.50;1.08;;;;;;;14.89;100.00;95629.16;1030221;28;20084;-75
2023/09/19 00:49:23;;;;;;;2.28;1.00;;;;;;;14.87;100.00;95620.72;1030200;28;20034;-74
2023/09/19 00:49:53;;;;;;;3.45;1.50;;;;;;;14.89;100.00;95623.06;1034346;28;20084;-73
2023/09/19 00:50:25;;;;;;;0.80;0.80;;;;;;;14.89;100.00;95623.84;1027205;28;20033;-74
2023/09/19 00:50:57;;;;;;;3.10;0.80;;;;;;;14.92;100.00;95628.53;1037962;28;20037;-73
2023/09/19 00:51:27;;;;;;;0.95;0.80;;;;;;;14.91;100.00;95624.34;1034590;28;20238;-75
2023/09/19 00:51:59;;;;;;;2.63;1.10;;;;;;;14.92;100.00;95614.53;1042513;28;20013;-73
2023/09/19 00:52:31;;;;;;;3.92;0.82;;;;;;;14.93;100.00;95624.06;1038279;28;20080;-75
2023/09/19 00:53:05;;;;;;;3.03;0.82;;;;;;;14.92;100.00;95622.47;1038575;28;20045;-74
2023/09/19 00:53:36;;;;;;;1.45;0.80;;;;;;;14.97;100.00;95625.03;1034022;28;20022;-75
2023/09/19 00:54:06;;;;;;;1.38;0.93;;;;;;;14.95;100.00;95617.38;1038568;28;20081;-73
2023/09/19 00:54:38;;;;;;;1.30;0.93;;;;;;;14.99;100.00;95622.84;1038318;28;20025;-74
2023/09/19 00:55:09;;;;;;;1.23;0.90;;;;;;;15.00;100.00;95619.16;1030394;28;20074;-74
2023/09/19 00:55:41;;;;;;;1.67;0.90;;;;;;;14.97;100.00;95614.47;1034166;28;20025;-74
2023/09/19 00:56:12;;;;;;;0.77;0.77;;;;;;;14.96;100.00;95605.75;1034514;28;20037;-73
2023/09/19 00:56:42;;;;;;;1.40;0.90;;;;;;;15.04;100.00;95625.41;1029642;28;20061;-74
2023/09/19 00:57:14;;;;;;;2.22;0.85;;;;;;;15.03;100.00;95618.59;1033643;28;20036;-74
2023/09/19 00:57:45;;;;;;;1.77;1.02;;;;;;;15.01;100.00;95605.66;1042368;28;20399;-74
2023/09/19 00:58:17;;;;;;;3.75;1.00;;;;;;;15.08;100.00;95615.81;1034417;28;20065;-74
2023/09/19 00:58:48;;;;;;;1.50;0.93;;;;;;;15.09;100.00;95612.13;1037121;28;20130;-76
2023/09/19 00:59:18;;;;;;;1.48;0.85;;;;;;;15.08;100.00;95610.53;1030830;28;20033;-73
2023/09/19 00:59:49;;;;;;;2.28;1.00;;;;;;;15.12;100.00;95616.78;1037703;28;20060;-75
2023/09/19 01:00:20;;;;;;;3.10;1.05;;;;;;;15.12;100.00;95614.16;1042045;28;20025;-74
2023/09/19 01:00:53;;;;;;;1.58;1.20;;;;;;;15.14;100.00;95614.66;1031397;28;20042;-74
2023/09/19 01:01:23;;;;;;;1.20;1.00;;;;;;;15.16;100.00;95615.16;1031228;28;20041;-74
2023/09/19 01:01:54;;;;;;;1.60;1.10;;;;;;;15.13;100.00;95609.69;1038664;28;20393;-75
2023/09/19 01:02:28;;;;;;;2.35;0.93;;;;;;;15.18;100.00;95615.63;1034405;28;20022;-74
2023/09/19 01:02:58;;;;;;;1.25;1.10;;;;;;;15.17;100.00;95614.06;1030277;28;20026;-74
2023/09/19 01:03:28;;;;;;;0.90;0.77;;;;;;;15.21;100.00;95617.69;1038588;28;20025;-73
2023/09/19 01:03:59;;;;;;;1.40;1.08;;;;;;;15.20;100.00;95602.91;1038397;28;20029;-74
2023/09/19 01:04:29;;;;;;;1.20;0.93;;;;;;;15.24;100.00;95618.97;1030425;28;20030;-74
2023/09/19 01:05:00;;;;;;;1.42;0.93;;;;;;;15.26;100.00;95616.81;1034193;28;20022;-75
2023/09/19 01:05:31;;;;;;;3.17;1.15;;;;;;;15.19;100.00;95606.63;1038821;28;20040;-74
2023/09/19 01:06:02;;;;;;;0.77;0.77;;;;;;;15.23;100.00;95618.19;1038350;28;20028;-74
2023/09/19 01:06:32;;;;;;;1.85;1.10;;;;;;;15.23;100.00;95618.19;1034165;28;20588;-74
2023/09/19 01:07:03;;;;;;;1.48;1.10;;;;;;;15.25;100.00;95615.22;1030291;28;20041;-74
2023/09/19 01:07:34;;;;;;;2.05;0.85;;;;;;;15.25;100.00;95625.81;1030784;28;20545;-74
2023/09/19 01:08:04;;;;;;;1.70;1.00;;;;;;;15.23;100.00;95612.91;1035043;28;20034;-74
2023/09/19 01:08:36;;;;;;;1.13;0.80;;;;;;;15.24;100.00;95614.44;1035256;28;20021;-73
2023/09/19 01:09:06;;;;;;;1.15;0.95;;;;;;;15.23;100.00;95612.91;1038383;28;20128;-75
2023/09/19 01:09:38;;;;;;;1.58;1.00;;;;;;;15.30;100.00;95623.84;1030726;28;20031;-74
2023/09/19 01:10:11;;;;;;;1.35;0.98;;;;;;;15.29;100.00;95621.50;1037532;28;20025;-74
2023/09/19 01:10:51;;;;;;;1.58;1.23;;;;;;;15.27;100.00;95619.16;1030185;28;20118;-74
2023/09/19 01:11:29;;;;;;;2.33;1.20;;;;;;;15.30;100.00;95618.56;1034247;28;20068;-73
2023/09/19 01:12:04;;;;;;;1.77;0.88;;;;;;;15.35;100.00;95624.81;1035825;28;20025;-74
2023/09/19 01:13:10;;;;;;;4.15;1.23;;;;;;;15.36;100.00;95618.44;1031099;28;20033;-74
2023/09/19 01:14:07;;;;;;;2.67;0.75;;;;;;;15.36;100.00;95621.91;1033734;28;20344;-76
2023/09/19 01:15:04;;;;;;;3.58;1.00;;;;;;;15.32;100.00;95621.72;1050909;28;20106;-74
2023/09/19 01:15:35;;;;;;;2.47;0.88;;;;;;;15.36;100.00;95619.25;1042319;28;20049;-74
2023/09/19 01:16:42;;;;;;;1.48;0.80;;;;;;;15.39;100.00;95620.50;1042426;28;20037;-74
2023/09/19 01:17:15;;;;;;;3.40;0.80;;;;;;;15.38;100.00;95611.00;1040518;28;20018;-74
2023/09/19 01:17:50;;;;;;;3.13;0.82;;;;;;;15.40;100.00;95614.16;1042403;28;20072;-74
2023/09/19 01:18:34;;;;;;;0.80;0.73;;;;;;;15.42;100.00;95619.91;1037950;28;20025;-75
2023/09/19 01:19:23;;;;;;;1.48;1.10;;;;;;;15.42;100.00;95614.63;1034242;28;20068;-74
2023/09/19 01:20:11;;;;;;;3.53;0.88;;;;;;;15.44;100.00;95610.63;1042972;28;20032;-76
2023/09/19 01:20:56;;;;;;;2.72;1.10;;;;;;;15.44;100.00;95617.78;1046236;28;20028;-74
2023/09/19 01:21:28;;;;;;;2.20;1.02;;;;;;;15.41;100.00;95613.06;1042572;28;20013;-74
2023/09/19 01:22:19;;;;;;;3.72;1.35;;;;;;;15.41;100.00;95615.72;1037595;28;20025;-74
2023/09/19 01:23:02;;;;;;;2.55;1.10;;;;;;;15.44;100.00;95620.41;1041366;28;20037;-74
2023/09/19 01:23:50;;;;;;;1.15;0.85;;;;;;;15.43;100.00;95627.56;1042632;28;20021;-74
2023/09/19 01:24:42;;;;;;;2.15;1.05;;;;;;;15.41;100.00;95626.28;1032646;28;20018;-73
2023/09/19 01:25:35;;;;;;;3.22;1.02;;;;;;;15.41;100.00;95621.00;1041394;28;20079;-74
2023/09/19 01:26:08;;;;;;;0.90;0.75;;;;;;;15.39;100.00;95623.16;1046448;28;20577;-74
2023/09/19 01:26:59;;;;;;;2.95;0.80;;;;;;;15.39;100.00;95626.59;1047212;28;20817;-74
2023/09/19 01:27:38;;;;;;;1.83;1.17;;;;;;;15.35;100.00;95625.59;1048687;28;20028;-74
2023/09/19 01:28:23;;;;;;;1.45;0.93;;;;;;;15.36;100.00;95626.38;1047642;28;20017;-73
2023/09/19 01:29:39;;;;;;;1.80;0.95;;;;;;;15.37;100.00;95628.75;1034675;28;20524;-74
2023/09/19 01:30:14;;;;;;;1.75;0.85;;;;;;;15.32;100.00;95621.72;1034999;28;20028;-75
2023/09/19 01:30:44;;;;;;;0.90;0.90;;;;;;;15.38;100.00;95626.88;1045128;28;20048;-75
2023/09/19 01:31:15;;;;;;;0.98;0.90;;;;;;;15.28;100.00;95612.00;1039090;28;20595;-74
2023/09/19 01:31:45;;;;;;;2.65;1.25;;;;;;;15.32;100.00;95619.06;1039121;28;20048;-74
2023/09/19 01:32:21;;;;;;;5.60;1.05;;;;;;;15.30;100.00;95618.56;1035032;28;20810;-75
2023/09/19 01:32:52;;;;;;;3.53;2.15;;;;;;;15.35;100.00;95625.59;1042137;28;20033;-75
2023/09/19 01:33:23;;;;;;;1.40;0.98;;;;;;;15.35;100.00;95627.47;1039078;28;20050;-74
2023/09/19 01:33:59;;;;;;;1.88;1.27;;;;;;;15.26;100.00;95612.31;1040105;28;20044;-75
2023/09/19 01:34:49;;;;;;;1.15;0.90;;;;;;;15.31;100.00;95625.41;1032419;28;20077;-75
2023/09/19 01:35:20;;;;;;;1.75;0.90;;;;;;;15.26;100.00;95617.59;1038460;28;20132;-74
2023/09/19 01:35:50;;;;;;;1.38;1.00;;;;;;;15.32;100.00;95620.91;1043122;28;20025;-74
2023/09/19 01:36:23;;;;;;;2.28;1.00;;;;;;;15.28;100.00;95615.44;1041860;28;20408;-74
2023/09/19 01:36:53;;;;;;;3.65;1.10;;;;;;;15.19;100.00;95605.84;1035014;28;20509;-73
2023/09/19 01:37:26;;;;;;;1.02;0.80;;;;;;;15.33;100.00;95625.91;1027331;28;20062;-74
2023/09/19 01:37:58;;;;;;;1.55;1.00;;;;;;;15.34;100.00;95629.34;1032536;28;20034;-73
2023/09/19 01:38:28;;;;;;;3.13;1.23;;;;;;;15.31;100.00;95625.41;1036400;28;20484;-75
2023/09/19 01:39:05;;;;;;;1.42;1.10;;;;;;;15.30;100.00;95620.44;1039074;28;20025;-76
2023/09/19 01:39:37;;;;;;;2.42;1.20;;;;;;;15.26;100.00;95620.25;1036291;28;20026;-74
2023/09/19 01:40:18;;;;;;;1.52;1.00;;;;;;;15.26;100.00;95611.53;1039803;28;20026;-74
2023/09/19 01:40:57;;;;;;;1.10;0.90;;;;;;;15.28;100.00;95623.34;1033706;28;20816;-73
2023/09/19 01:41:54;;;;;;;2.70;1.20;;;;;;;15.31;100.00;95635.22;1034849;28;20025;-74
2023/09/19 01:42:31;;;;;;;1.55;0.80;;;;;;;15.29;100.00;95627.59;1038881;28;20063;-74
2023/09/19 01:43:18;;;;;;;4.13;1.00;;;;;;;15.31;100.00;95630.69;1038250;28;20022;-73
2023/09/19 01:43:50;;;;;;;1.42;0.90;;;;;;;15.32;100.00;95634.94;1038814;28;20036;-75
2023/09/19 01:44:53;;;;;;;1.52;1.00;;;;;;;15.31;100.00;95635.97;1034135;28;20038;-74
2023/09/19 01:45:59;;;;;;;2.22;1.05;;;;;;;15.33;100.00;95630.41;1031128;28;20576;-74
2023/09/19 01:46:34;;;;;;;4.53;1.10;;;;;;;15.31;100.00;95635.97;1030599;28;20093;-74
2023/09/19 01:47:12;;;;;;;2.05;0.90;;;;;;;15.32;100.00;95637.56;1022168;28;20023;-75
2023/09/19 01:48:09;;;;;;;2.20;1.08;;;;;;;15.31;100.00;95640.50;1036635;28;20021;-74
2023/09/19 01:48:58;;;;;;;1.50;1.25;;;;;;;15.30;100.00;95644.22;1035352;28;20042;-73
2023/09/19 01:49:46;;;;;;;1.42;1.02;;;;;;;15.27;100.00;95639.53;1038380;28;20559;-75
2023/09/19 01:50:19;;;;;;;3.65;1.20;;;;;;;15.30;100.00;95642.34;1042710;28;20033;-74
2023/09/19 01:51:01;;;;;;;1.77;0.90;;;;;;;15.26;100.00;95638.75;1042959;28;20045;-72
2023/09/19 01:51:40;;;;;;;5.40;1.38;;;;;;;15.30;100.00;95650.28;1038864;28;20021;-73
2023/09/19 01:52:13;;;;;;;3.75;1.10;;;;;;;15.27;100.00;95640.31;1034732;28;20631;-74
2023/09/19 01:53:04;;;;;;;3.20;1.00;;;;;;;15.29;100.00;95638.16;1026985;28;20077;-74
2023/09/19 01:54:02;;;;;;;3.17;0.95;;;;;;;15.31;100.00;95645.78;1030732;28;20062;-73
2023/09/19 01:54:37;;;;;;;1.60;0.85;;;;;;;15.26;100.00;95633.47;1038202;28;20030;-73
2023/09/19 01:55:09;;;;;;;1.45;0.80;;;;;;;15.24;100.00;95640.09;1034897;28;20026;-74
2023/09/19 01:55:42;;;;;;;2.67;1.27;;;;;;;15.23;100.00;95634.03;1034802;28;20171;-75
2023/09/19 01:56:25;;;;;;;1.85;0.75;;;;;;;15.23;100.00;95647.25;1047122;28;20028;-74
2023/09/19 01:57:14;;;;;;;2.00;1.10;;;;;;;15.20;100.00;95644.44;1033416;28;20506;-76
2023/09/19 01:57:59;;;;;;;3.90;0.95;;;;;;;15.21;100.00;95651.25;1042812;28;20024;-74
2023/09/19 01:58:39;;;;;;;1.50;0.93;;;;;;;15.18;100.00;95647.34;1044679;28;20025;-74
2023/09/19 01:59:12;;;;;;;2.22;0.98;;;;;;;15.21;100.00;95652.03;1047440;28;20462;-74
2023/09/19 01:59:51;;;;;;;1.27;1.00;;;;;;;15.19;100.00;95651.56;1037909;28;20048;-74
2023/09/19 02:00:22;;;;;;;1.80;0.88;;;;;;;15.14;100.00;95641.09;1034269;28;20017;-74
2023/09/19 02:00:52;;;;;;;1.75;1.10;;;;;;;15.19;100.00;95658.69;1030960;28;20105;-74
2023/09/19 02:01:24;;;;;;;1.73;0.95;;;;;;;15.20;100.00;95655.78;1030760;28;20243;-74
2023/09/19 02:01:54;;;;;;;2.53;1.05;;;;;;;15.19;100.00;95651.56;1038965;28;20028;-72
2023/09/19 02:02:25;;;;;;;4.65;1.33;;;;;;;15.14;100.00;95641.09;1038900;28;20461;-74
2023/09/19 02:02:58;;;;;;;3.05;1.48;;;;;;;15.14;100.00;95646.38;1030516;28;20030;-73
2023/09/19 02:03:28;;;;;;;1.73;1.00;;;;;;;15.14;100.00;95643.72;1034827;28;20533;-76
2023/09/19 02:03:59;;;;;;;2.33;1.50;;;;;;;15.14;100.00;95643.72;1031045;28;20241;-74
2023/09/19 02:04:30;;;;;;;1.30;1.00;;;;;;;15.11;100.00;95644.31;1030673;28;20437;-74
2023/09/19 02:05:00;;;;;;;1.60;1.10;;;;;;;15.11;100.00;95652.25;1031156;28;20073;-75
2023/09/19 02:05:33;;;;;;;2.83;1.20;;;;;;;15.09;100.00;95651.75;1031041;28;20034;-74
2023/09/19 02:06:05;;;;;;;1.88;1.25;;;;;;;15.09;100.00;95654.41;1030902;28;20031;-73
2023/09/19 02:06:35;;;;;;;1.80;1.10;;;;;;;15.08;100.00;95652.81;1035471;28;20132;-75
2023/09/19 02:07:06;;;;;;;1.35;1.20;;;;;;;15.07;100.00;95656.56;1039127;28;20412;-75
2023/09/19 02:07:37;;;;;;;1.90;1.30;;;;;;;15.06;100.00;95650.50;1038793;28;20037;-73
2023/09/19 02:08:08;;;;;;;3.55;1.27;;;;;;;15.03;100.00;95650.28;1035503;28;20026;-73
2023/09/19 02:08:39;;;;;;;3.85;1.20;;;;;;;15.05;100.00;95658.69;1038728;28;20501;-74
2023/09/19 02:09:09;;;;;;;2.88;1.70;;;;;;;15.04;100.00;95657.13;1035052;28;20014;-76
2023/09/19 02:09:42;;;;;;;2.20;1.48;;;;;;;15.04;100.00;95657.13;1036097;28;20021;-74
2023/09/19 02:10:13;;;;;;;2.60;1.10;;;;;;;15.01;100.00;95658.50;1042665;28;20895;-74
2023/09/19 02:10:48;;;;;;;4.93;1.38;;;;;;;15.02;100.00;95654.00;1039237;28;20060;-74
2023/09/19 02:11:19;;;;;;;2.60;1.77;;;;;;;14.97;100.00;95662.81;1039929;28;20026;-75
2023/09/19 02:11:49;;;;;;;1.52;1.25;;;;;;;14.94;100.00;95659.97;1043143;28;20108;-74
2023/09/19 02:12:20;;;;;;;1.17;1.08;;;;;;;14.94;100.00;95657.31;1031483;28;20860;-74
2023/09/19 02:12:50;;;;;;;2.22;1.30;;;;;;;14.88;100.00;95653.19;1034868;28;20029;-75
2023/09/19 02:13:22;;;;;;;3.58;1.58;;;;;;;14.91;100.00;95661.31;1033770;28;20037;-74
2023/09/19 02:13:54;;;;;;;2.53;1.10;;;;;;;14.91;100.00;95663.97;1035830;28;20083;-74
2023/09/19 02:14:24;;;;;;;4.55;1.58;;;;;;;14.90;100.00;95661.63;1034878;28;20017;-73
2023/09/19 02:14:57;;;;;;;1.33;1.15;;;;;;;14.92;100.00;95664.75;1030417;28;20023;-75
2023/09/19 02:15:27;;;;;;;1.65;1.25;;;;;;;14.87;100.00;95656.91;1034973;28;20098;-74
2023/09/19 02:15:58;;;;;;;1.92;1.10;;;;;;;14.87;100.00;95656.91;1035178;28;20117;-75
2023/09/19 02:16:28;;;;;;;1.50;1.30;;;;;;;14.87;100.00;95657.69;1035372;28;20021;-74
2023/09/19 02:16:59;;;;;;;3.55;1.10;;;;;;;14.89;100.00;95660.03;1042946;28;20605;-73
2023/09/19 02:17:31;;;;;;;3.30;1.40;;;;;;;14.85;100.00;95662.47;1039605;28;20033;-74
2023/09/19 02:18:03;;;;;;;3.00;1.30;;;;;;;14.87;100.00;95667.50;1043247;28;20083;-74
2023/09/19 02:18:36;;;;;;;1.67;1.13;;;;;;;14.82;100.00;95663.06;1045716;28;20071;-75
2023/09/19 02:19:07;;;;;;;3.28;1.13;;;;;;;14.85;100.00;95665.94;1047114;28;20024;-73
2023/09/19 02:19:38;;;;;;;3.88;1.10;;;;;;;14.84;100.00;95664.34;1047107;28;20031;-74
2023/09/19 02:20:14;;;;;;;1.90;1.17;;;;;;;14.82;100.00;95657.78;1041503;28;20028;-73
2023/09/19 02:20:45;;;;;;;1.60;1.20;;;;;;;14.83;100.00;95662.78;1041592;28;20123;-74
2023/09/19 02:21:17;;;;;;;2.13;1.25;;;;;;;14.83;100.00;95670.72;1034951;28;20113;-75
2023/09/19 02:21:48;;;;;;;2.95;1.52;;;;;;;14.82;100.00;95669.16;1039956;28;20026;-73
2023/09/19 02:22:19;;;;;;;1.90;0.98;;;;;;;14.80;100.00;95668.66;1039402;28;20022;-74
2023/09/19 02:22:49;;;;;;;2.35;1.50;;;;;;;14.72;100.00;95671.97;1038795;28;20046;-74
2023/09/19 02:23:20;;;;;;;2.35;1.00;;;;;;;14.75;100.00;95676.66;1032832;28;20021;-75
2023/09/19 02:23:51;;;;;;;1.77;1.20;;;;;;;14.71;100.00;95667.75;1039135;28;20029;-73
2023/09/19 02:24:21;;;;;;;2.13;1.27;;;;;;;14.76;100.00;95678.22;1037225;28;20113;-73
2023/09/19 02:24:53;;;;;;;1.58;1.20;;;;;;;14.72;100.00;95669.31;1035099;28;20033;-75
2023/09/19 02:25:26;;;;;;;2.67;1.00;;;;;;;14.75;100.00;95673.22;1035254;28;20541;-74
2023/09/19 02:26:06;;;;;;;2.88;1.13;;;;;;;14.75;100.00;95674.00;1039096;28;20018;-74
2023/09/19 02:26:36;;;;;;;1.40;1.08;;;;;;;14.75;100.00;95676.66;1036130;28;20033;-73
2023/09/19 02:27:07;;;;;;;1.08;0.90;;;;;;;14.74;100.00;95675.09;1041369;28;20025;-73
2023/09/19 02:27:39;;;;;;;1.80;1.20;;;;;;;14.74;100.00;95674.31;1045622;28;20036;-75
2023/09/19 02:28:10;;;;;;;3.70;1.08;;;;;;;14.72;100.00;95679.88;1041227;28;20117;-74
2023/09/19 02:28:40;;;;;;;1.70;1.10;;;;;;;14.73;100.00;95680.66;1043293;28;20036;-75
2023/09/19 02:29:12;;;;;;;2.25;1.27;;;;;;;14.71;100.00;95675.66;1043379;28;20036;-73
2023/09/19 02:29:43;;;;;;;2.47;1.13;;;;;;;14.70;100.00;95675.97;1039707;28;20437;-74
2023/09/19 02:30:15;;;;;;;2.15;1.30;;;;;;;14.73;100.00;95684.09;1038790;28;20228;-74
2023/09/19 02:30:50;;;;;;;3.00;1.45;;;;;;;14.69;100.00;95674.38;1039268;28;20065;-75
2023/09/19 02:31:20;;;;;;;1.80;1.20;;;;;;;14.65;100.00;95668.88;1035139;28;20041;-74
2023/09/19 02:31:51;;;;;;;1.38;1.00;;;;;;;14.68;100.00;95676.25;1036414;28;20049;-73
2023/09/19 02:32:22;;;;;;;2.90;1.23;;;;;;;14.69;100.00;95677.81;1031304;28;20080;-74
2023/09/19 02:32:53;;;;;;;0.98;0.90;;;;;;;14.67;100.00;95673.91;1040361;28;20100;-73
2023/09/19 02:33:23;;;;;;;3.00;1.00;;;;;;;14.67;100.00;95677.31;1035533;28;20022;-73
2023/09/19 02:33:54;;;;;;;2.58;1.35;;;;;;;14.63;100.00;95672.91;1043104;28;20037;-75
2023/09/19 02:34:25;;;;;;;5.18;1.45;;;;;;;14.66;100.00;95677.63;1039359;28;20034;-73
2023/09/19 02:34:56;;;;;;;3.20;1.30;;;;;;;14.63;100.00;95672.91;1043115;28;20099;-74
2023/09/19 02:35:27;;;;;;;1.65;1.10;;;;;;;14.66;100.00;95678.41;1040701;28;20049;-74
2023/09/19 02:35:59;;;;;;;2.47;1.27;;;;;;;14.58;100.00;95671.13;1043752;28;20060;-76
2023/09/19 02:36:30;;;;;;;2.75;1.02;;;;;;;14.65;100.00;95679.47;1042007;28;20053;-73
2023/09/19 02:37:01;;;;;;;3.05;1.20;;;;;;;14.66;100.00;95678.41;1039711;28;20040;-74
2023/09/19 02:37:32;;;;;;;1.88;1.05;;;;;;;14.65;100.00;95671.53;1042938;28;20603;-74
2023/09/19 02:38:06;;;;;;;2.80;1.30;;;;;;;14.66;100.00;95675.75;1040208;28;20071;-73